| Min | Max / Total | Moy | |
|---|---|---|---|
| T° | 20.1°c | 22.0°c | 21.1°c (ecart +2.3°) |
| Vent moyen | - | 17 km/h | 3.5 km/h |
| Vent rafale | - | 29 km/h | 5.8 km/h |
| Pression | 1018.4 hPa | 1021.1 hPa | 1020 hPa |
| Précipitations | - | 0 mm | - |
Actuellement
T°ext 21.5°C
H% ext 74 %
Vent 17 km/h / Maxi 29 km/h E
Pression 1018.4 hPa
Donnée détaillées (10 min)
| Date | Tempé | Tempé. INT | Tempé. rosée | H% | Vmoy.(km/h) | Rafales (km/h) | Dir. vent | Intensité pluie (L/m²/h) | Tot pluie 24h (L/m²) | Pression (hPa) |
|---|---|---|---|---|---|---|---|---|---|---|
| 09:00 | 21.5 ° | 24.1 ° | 16.7 ° | 74 % | 17 | 29 | E | 0.0 | 0.0 | 1018.4 |
| 08:50 | 21.4 ° | 24.1 ° | 17.2 ° | 77 % | 15 | 24 | ENE | 0.0 | 0.0 | 1018.9 |
| 08:40 | 21.3 ° | 24.1 ° | 16.5 ° | 74 % | 8 | 13 | E | 0.0 | 0.0 | 1019.3 |
| 08:30 | 21.1 ° | 24.1 ° | 16.7 ° | 76 % | 5 | 8 | S | 0.0 | 0.0 | 1019.8 |
| 08:20 | 21.0 ° | 24.1 ° | 16.2 ° | 74 % | 5 | 8 | E | 0.0 | 0.0 | 1019.6 |
| 08:10 | 20.6 ° | 24.1 ° | 15.8 ° | 74 % | 7 | 10 | E | 0.0 | 0.0 | 1019.6 |
| 08:00 | 20.6 ° | 24.2 ° | 16.4 ° | 77 % | 0 | - | SSO | 0.0 | 0.0 | 1020.0 |
| 07:50 | 20.6 ° | 24.2 ° | 17.0 ° | 80 % | 2 | 3 | SSO | 0.0 | 0.0 | 1020.2 |
| 07:40 | 20.6 ° | 24.2 ° | 17.0 ° | 80 % | 5 | 5 | SSO | 0.0 | 0.0 | 1020.1 |
| 07:30 | 20.9 ° | 24.2 ° | 16.9 ° | 78 % | 4 | 5 | SSE | 0.0 | 0.0 | 1019.7 |
| 07:20 | 21.1 ° | 24.2 ° | 16.3 ° | 74 % | 1 | 3 | SSE | 0.0 | 0.0 | 1019.5 |
| 07:10 | 21.2 ° | 24.2 ° | 15.9 ° | 72 % | 2 | 3 | E | 0.0 | 0.0 | 1019.3 |
| 07:00 | 21.3 ° | 24.2 ° | 15.8 ° | 71 % | 4 | 8 | E | 0.0 | 0.0 | 1019.2 |
| 06:50 | 21.3 ° | 24.2 ° | 15.8 ° | 71 % | 2 | 3 | ESE | 0.0 | 0.0 | 1019.1 |
| 06:40 | 21.4 ° | 24.2 ° | 16.1 ° | 72 % | 2 | 5 | ENE | 0.0 | 0.0 | 1019.1 |
| 06:30 | 21.4 ° | 24.2 ° | 17.0 ° | 76 % | 2 | 5 | ENE | 0.0 | 0.0 | 1018.9 |
| 06:20 | 21.6 ° | 24.2 ° | 17.0 ° | 75 % | 3 | 5 | SE | 0.0 | 0.0 | 1019.3 |
| 06:10 | 21.7 ° | 24.2 ° | 17.1 ° | 75 % | 4 | 8 | SE | 0.0 | 0.0 | 1019.4 |
| 06:00 | 21.9 ° | 24.2 ° | 16.6 ° | 72 % | 8 | 13 | E | 0.0 | 0.0 | 1019.4 |
| 05:50 | 21.9 ° | 24.2 ° | 16.2 ° | 70 % | 8 | 13 | E | 0.0 | 0.0 | 1019.5 |
| 05:40 | 21.9 ° | 24.3 ° | 16.2 ° | 70 % | 6 | 13 | E | 0.0 | 0.0 | 1019.6 |
| 05:30 | 22.0 ° | 24.3 ° | 16.3 ° | 70 % | 6 | 8 | SE | 0.0 | 0.0 | 1019.5 |
| 05:20 | 21.9 ° | 24.3 ° | 16.2 ° | 70 % | 12 | 19 | E | 0.0 | 0.0 | 1019.4 |
| 05:10 | 21.8 ° | 24.3 ° | 16.1 ° | 70 % | 7 | 10 | E | 0.0 | 0.0 | 1019.5 |
| 05:00 | 21.6 ° | 24.3 ° | 16.1 ° | 71 % | 7 | 10 | E | 0.0 | 0.0 | 1019.5 |
| 04:50 | 21.3 ° | 24.3 ° | 16.0 ° | 72 % | 7 | 10 | E | 0.0 | 0.0 | 1019.7 |
| 04:40 | 21.4 ° | 24.4 ° | 16.1 ° | 72 % | 2 | 5 | E | 0.0 | 0.0 | 1019.9 |
| 04:30 | 21.5 ° | 24.4 ° | 16.0 ° | 71 % | 0 | - | ENE | 0.0 | 0.0 | 1020.0 |
| 04:20 | 21.5 ° | 24.4 ° | 16.2 ° | 72 % | 1 | 3 | ENE | 0.0 | 0.0 | 1019.9 |
| 04:10 | 21.4 ° | 24.5 ° | 16.1 ° | 72 % | 1 | 3 | ENE | 0.0 | 0.0 | 1019.9 |
| 04:00 | 21.4 ° | 24.5 ° | 16.1 ° | 72 % | 3 | 5 | ENE | 0.0 | 0.0 | 1020.0 |
| 03:50 | 21.3 ° | 24.5 ° | 16.0 ° | 72 % | 2 | 3 | ENE | 0.0 | 0.0 | 1020.2 |
| 03:40 | 21.0 ° | 24.6 ° | 16.0 ° | 73 % | 0 | - | ENE | 0.0 | 0.0 | 1020.5 |
| 03:30 | 20.7 ° | 24.6 ° | 15.7 ° | 73 % | 2 | 3 | ENE | 0.0 | 0.0 | 1020.6 |
| 03:20 | 20.6 ° | 24.6 ° | 15.8 ° | 74 % | 0 | - | ENE | 0.0 | 0.0 | 1020.8 |
| 03:10 | 20.4 ° | 24.6 ° | 15.6 ° | 74 % | 0 | - | ENE | 0.0 | 0.0 | 1020.9 |
| 03:00 | 20.3 ° | 24.6 ° | 15.5 ° | 74 % | 0 | - | ENE | 0.0 | 0.0 | 1021.0 |
| 02:50 | 20.2 ° | 24.5 ° | 15.4 ° | 74 % | 2 | 3 | ENE | 0.0 | 0.0 | 1021.0 |
| 02:40 | 20.1 ° | 24.5 ° | 15.1 ° | 73 % | 0 | - | ENE | 0.0 | 0.0 | 1021.1 |
| 02:30 | 20.1 ° | 24.5 ° | 15.1 ° | 73 % | 0 | - | ENE | 0.0 | 0.0 | 1021.1 |
| 01:20 | 20.8 ° | 24.4 ° | 15.1 ° | 70 % | 2 | 3 | ENE | 0.0 | 0.0 | 1020.9 |
| 01:10 | 20.6 ° | 24.4 ° | 14.9 ° | 70 % | 0 | - | ENE | 0.0 | 0.0 | 1020.5 |
| 01:00 | 20.6 ° | 24.3 ° | 14.7 ° | 69 % | 1 | 3 | ENE | 0.0 | 0.0 | 1020.7 |
| 00:50 | 20.6 ° | 24.3 ° | 14.7 ° | 69 % | 1 | 3 | ENE | 0.0 | 0.0 | 1020.8 |
| 00:40 | 20.7 ° | 24.2 ° | 14.6 ° | 68 % | 1 | 3 | ENE | 0.0 | 0.0 | 1020.9 |
| 00:30 | 20.7 ° | 24.2 ° | 14.6 ° | 68 % | 0 | - | ENE | 0.0 | 0.0 | 1020.8 |
| 00:20 | 21.1 ° | 24.1 ° | 14.7 ° | 67 % | 0 | - | ENE | 0.0 | 0.0 | 1021.0 |
| 00:10 | 21.3 ° | 24.0 ° | 14.7 ° | 66 % | 0 | - | ENE | 0.0 | 0.0 | 1020.8 |
Donnée détaillées horaires
| Date | Tempé min. | Tempé max. | Max solar Rad (W/m2). | Tempé. INT | Tempé. rosée | H% | Vmoy.(km/h) | Rafales (km/h) | Dir. vent | Intensité pluie (L/m²/h) | Tot pluie 24h (L/m²) | Pression (hPa) |
|---|---|---|---|---|---|---|---|---|---|---|---|---|
| 09:00 | 21.5 ° | 21.5 ° | 24 | 24.1 ° | 16.7 ° | 74 % | 17 | 29 | E | 0.0 | 0.0 | 1018.4 |
| 08:00 | 20.6 ° | 21.4 ° | 28 | 24.1 ° | 16.4 ° | 77 % | 15 | 24 | SSO | 0.0 | 0.0 | 1020.0 |
| 07:00 | 20.6 ° | 21.3 ° | 3 | 24.2 ° | 15.8 ° | 71 % | 5 | 8 | E | 0.0 | 0.0 | 1019.2 |
| 06:00 | 21.3 ° | 21.9 ° | 0 | 24.2 ° | 16.6 ° | 72 % | 8 | 13 | E | 0.0 | 0.0 | 1019.4 |
| 05:00 | 21.6 ° | 22.0 ° | 0 | 24.3 ° | 16.1 ° | 71 % | 12 | 19 | E | 0.0 | 0.0 | 1019.5 |
| 04:00 | 21.3 ° | 21.5 ° | 0 | 24.4 ° | 16.1 ° | 72 % | 7 | 10 | ENE | 0.0 | 0.0 | 1020.0 |
| 03:00 | 20.3 ° | 21.3 ° | 0 | 24.6 ° | 15.5 ° | 74 % | 2 | 3 | ENE | 0.0 | 0.0 | 1021.0 |
| 02:30 | 20.1 ° | 20.2 ° | 0 | 24.5 ° | 15.1 ° | 73 % | 2 | 3 | ENE | 0.0 | 0.0 | 1021.1 |
| 01:00 | 20.6 ° | 20.8 ° | 0 | 24.4 ° | 14.7 ° | 69 % | 2 | 3 | ENE | 0.0 | 0.0 | 1020.7 |
| 00:00 | 20.6 ° | 21.3 ° | 0 | 24.1 ° | 14.7 ° | 66 % | 1 | 3 | ENE | 0.0 | 0.0 | 1020.7 |
Données mensuelles (Septembre 2026)
| Jour | Tempé. min | Tempé. max | Tempé. moy | Tempé. IN moy | Ecart saisonnier | Vent moy. max jour | Rafale max jour | Tot. pluie jour |
|---|---|---|---|---|---|---|---|---|
| M01 | 12.1° | 26.3° | 19.2° | 23.6° | +0.4 °C | 16 km/h | 29 km/h | 0.0 mm |
| M02 | 13.5° | 19.7° | 16.6° | 23.5° | -2.2 °C | 8 km/h | 10 km/h | 0.0 mm |
| J03 | 12.3° | 29.6° | 21° | 23.7° | +2.2 °C | 13 km/h | 19 km/h | 0.0 mm |
| V04 | 14.4° | 34.2° | 24.3° | 24° | +5.5 °C | 19 km/h | 35 km/h | 0.0 mm |
| S05 | 16.5° | 31.6° | 24.1° | 23.9° | +5.3 °C | 14 km/h | 24 km/h | 0.0 mm |
| D06 | 20.1° | 22.0° | 21.1° | 24.3° | +2.3 °C | 17 km/h | 29 km/h | 0.0 mm |
Moy Tmin 14.8°C - Moy Tmax 27.2°C
Tmin 12.1°C - Tmax 34.2°C
Température moyenne mensuelle : 21 °C (ecart saisonnier +2.2°)
Rafale Maxi : 34.6 km/h
Moyenne vent : 14.42 km/h
Total précipitations : 0 mm (-81.2 mm)